createdAt,value
2017-07-04T00:00:30.235Z,0
2017-07-04T00:01:24.268Z,0
2017-07-04T00:02:12.171Z,0
2017-07-04T00:03:13.255Z,0
2017-07-04T00:04:07.341Z,0
2017-07-04T00:05:07.362Z,0
2017-07-04T00:06:02.369Z,0
2017-07-04T00:06:50.478Z,0
2017-07-04T00:07:38.470Z,0
2017-07-04T00:08:26.490Z,0
2017-07-04T00:09:15.523Z,0
2017-07-04T00:10:03.659Z,0
2017-07-04T00:10:52.261Z,0
2017-07-04T00:11:39.707Z,0
2017-07-04T00:12:28.767Z,0
2017-07-04T00:13:16.855Z,0
2017-07-04T00:14:05.822Z,0
2017-07-04T00:14:53.802Z,0
2017-07-04T00:15:41.944Z,0
2017-07-04T00:16:31.139Z,0
2017-07-04T00:17:18.988Z,0
2017-07-04T00:18:07.030Z,0
2017-07-04T00:18:56.248Z,0
2017-07-04T00:19:44.263Z,0
2017-07-04T00:20:33.188Z,0
2017-07-04T00:21:21.304Z,0
2017-07-04T00:22:09.353Z,0
2017-07-04T00:22:57.312Z,0
2017-07-04T00:23:45.592Z,0
2017-07-04T00:24:51.384Z,0
2017-07-04T00:25:46.361Z,0
2017-07-04T00:26:46.462Z,0
2017-07-04T00:27:40.552Z,0
2017-07-04T00:28:40.576Z,0
2017-07-04T00:29:35.615Z,0
2017-07-04T00:30:30.633Z,0
2017-07-04T00:31:24.603Z,0
2017-07-04T00:32:13.774Z,0
2017-07-04T00:33:02.706Z,0
2017-07-04T00:33:51.659Z,0
2017-07-04T00:34:51.865Z,0
2017-07-04T00:35:45.807Z,0
2017-07-04T00:36:45.915Z,0
2017-07-04T00:37:41.006Z,0
2017-07-04T00:38:36.107Z,0
2017-07-04T00:39:37.054Z,0
2017-07-04T00:40:37.051Z,0
2017-07-04T00:41:37.158Z,0
2017-07-04T00:42:32.102Z,0
2017-07-04T00:43:26.147Z,0
2017-07-04T00:44:26.140Z,0
2017-07-04T00:45:21.211Z,0
2017-07-04T00:46:21.837Z,0
2017-07-04T00:47:15.340Z,0
2017-07-04T00:48:15.385Z,0
2017-07-04T00:49:10.386Z,0
2017-07-04T00:50:05.420Z,0
2017-07-04T00:51:06.409Z,0
2017-07-04T00:52:06.616Z,0
2017-07-04T00:53:01.498Z,0
2017-07-04T00:54:01.631Z,0
2017-07-04T00:54:55.570Z,0
2017-07-04T00:55:55.953Z,0
2017-07-04T00:56:50.724Z,0
2017-07-04T00:57:45.949Z,0
2017-07-04T00:58:45.756Z,0
2017-07-04T00:59:40.960Z,0
2017-07-04T01:00:36.031Z,0
2017-07-04T01:01:35.826Z,0
2017-07-04T01:02:30.878Z,0
2017-07-04T01:03:24.936Z,0
2017-07-04T01:04:25.109Z,0
2017-07-04T01:05:25.053Z,0
2017-07-04T01:06:20.602Z,0
2017-07-04T01:07:15.107Z,0
2017-07-04T01:08:04.111Z,0
2017-07-04T01:09:04.325Z,0
2017-07-04T01:09:52.202Z,0
2017-07-04T01:10:41.340Z,0
2017-07-04T01:11:29.256Z,0
2017-07-04T01:12:17.273Z,0
2017-07-04T01:13:06.445Z,0
2017-07-04T01:13:54.494Z,0
2017-07-04T01:14:42.640Z,0
2017-07-04T01:15:31.965Z,0
2017-07-04T01:16:19.547Z,0
2017-07-04T01:17:13.627Z,0
2017-07-04T01:18:13.706Z,0
2017-07-04T01:19:13.735Z,0
2017-07-04T01:20:14.169Z,0
2017-07-04T01:21:19.726Z,0
2017-07-04T01:22:08.725Z,0
2017-07-04T01:22:56.863Z,0
2017-07-04T01:23:45.853Z,0
2017-07-04T01:24:33.944Z,0
2017-07-04T01:25:27.892Z,0
2017-07-04T01:26:27.900Z,0
2017-07-04T01:27:28.055Z,0
2017-07-04T01:28:23.036Z,0
2017-07-04T01:29:17.124Z,0
2017-07-04T01:30:18.333Z,0
2017-07-04T01:31:19.190Z,0
2017-07-04T01:32:19.196Z,0
2017-07-04T01:33:19.222Z,0
2017-07-04T01:34:14.254Z,0
2017-07-04T01:35:08.276Z,0
2017-07-04T01:36:08.359Z,0
2017-07-04T01:37:03.413Z,0
2017-07-04T01:38:03.453Z,0
2017-07-04T01:38:57.468Z,0
2017-07-04T01:39:58.508Z,0
2017-07-04T01:40:59.933Z,0
2017-07-04T01:41:54.581Z,0
2017-07-04T01:42:48.713Z,0
2017-07-04T01:43:48.672Z,0
2017-07-04T01:44:43.680Z,0
2017-07-04T01:45:43.725Z,0
2017-07-04T01:46:37.751Z,0
2017-07-04T01:47:37.924Z,0
2017-07-04T01:48:32.835Z,0
2017-07-04T01:49:27.927Z,0
2017-07-04T01:50:27.979Z,0
2017-07-04T01:51:22.994Z,0
2017-07-04T01:52:23.057Z,0
2017-07-04T01:53:23.127Z,0
2017-07-04T01:54:23.088Z,0
2017-07-04T01:55:17.158Z,0
2017-07-04T01:56:17.127Z,0
2017-07-04T01:57:12.156Z,0
2017-07-04T01:58:07.190Z,0
2017-07-04T01:59:07.275Z,0
2017-07-04T02:00:02.355Z,0
2017-07-04T02:00:57.842Z,0
2017-07-04T02:01:58.340Z,0
2017-07-04T02:02:58.362Z,0
2017-07-04T02:03:58.422Z,0
2017-07-04T02:04:53.526Z,0
2017-07-04T02:05:47.496Z,0
2017-07-04T02:06:48.433Z,0
2017-07-04T02:07:48.612Z,0
2017-07-04T02:08:48.647Z,0
2017-07-04T02:09:43.596Z,0
2017-07-04T02:10:37.695Z,0
2017-07-04T02:11:37.667Z,0
2017-07-04T02:12:32.700Z,0
2017-07-04T02:13:27.846Z,0
2017-07-04T02:14:33.838Z,0
2017-07-04T02:15:34.160Z,0
2017-07-04T02:16:33.931Z,0
2017-07-04T02:17:28.628Z,0
2017-07-04T02:18:28.009Z,0
2017-07-04T02:19:28.109Z,0
2017-07-04T02:20:28.083Z,0
2017-07-04T02:21:28.060Z,0
2017-07-04T02:22:23.096Z,0
2017-07-04T02:23:17.322Z,0
2017-07-04T02:24:17.142Z,4
2017-07-04T02:25:12.201Z,4
2017-07-04T02:26:12.171Z,4
2017-07-04T02:27:12.361Z,4
2017-07-04T02:28:18.461Z,0
2017-07-04T02:29:18.307Z,0
2017-07-04T02:30:18.951Z,4
2017-07-04T02:31:18.324Z,4
2017-07-04T02:32:12.384Z,4
2017-07-04T02:33:12.478Z,4
2017-07-04T02:34:07.550Z,4
2017-07-04T02:35:07.547Z,8
2017-07-04T02:36:07.488Z,4
2017-07-04T02:37:07.579Z,4
2017-07-04T02:38:01.791Z,8
2017-07-04T02:39:01.759Z,8
2017-07-04T02:39:56.881Z,8
2017-07-04T02:40:51.771Z,8
2017-07-04T02:41:51.729Z,12
2017-07-04T02:42:46.753Z,12
2017-07-04T02:43:41.778Z,12
2017-07-04T02:44:42.868Z,12
2017-07-04T02:45:43.932Z,12
2017-07-04T02:46:39.075Z,12
2017-07-04T02:47:33.029Z,12
2017-07-04T02:48:34.051Z,12
2017-07-04T02:49:29.020Z,16
2017-07-04T02:50:23.140Z,20
2017-07-04T02:51:23.197Z,20
2017-07-04T02:52:18.170Z,24
2017-07-04T02:53:18.187Z,28
2017-07-04T02:54:12.367Z,24
2017-07-04T02:55:12.780Z,28
2017-07-04T02:56:07.310Z,40
2017-07-04T02:57:07.501Z,40
2017-07-04T02:58:08.411Z,32
2017-07-04T02:59:08.411Z,40
2017-07-04T03:00:08.600Z,60
2017-07-04T03:01:02.543Z,72
2017-07-04T03:02:02.602Z,76
2017-07-04T03:02:57.674Z,80
2017-07-04T03:03:52.635Z,84
2017-07-04T03:04:52.739Z,92
2017-07-04T03:05:48.201Z,92
2017-07-04T03:06:42.766Z,96
2017-07-04T03:07:43.673Z,112
2017-07-04T03:08:43.749Z,136
2017-07-04T03:09:38.799Z,164
2017-07-04T03:10:38.924Z,196
2017-07-04T03:11:38.883Z,216
2017-07-04T03:12:45.005Z,240
2017-07-04T03:13:40.014Z,248
2017-07-04T03:14:34.058Z,260
2017-07-04T03:15:35.038Z,272
2017-07-04T03:16:30.115Z,268
2017-07-04T03:17:30.154Z,280
2017-07-04T03:18:30.157Z,304
2017-07-04T03:19:30.270Z,324
2017-07-04T03:20:30.323Z,332
2017-07-04T03:21:30.327Z,360
2017-07-04T03:22:30.360Z,384
2017-07-04T03:23:30.357Z,440
2017-07-04T03:24:30.357Z,536
2017-07-04T03:25:30.455Z,620
2017-07-04T03:26:30.371Z,676
2017-07-04T03:27:30.538Z,700
2017-07-04T03:28:36.609Z,696
2017-07-04T03:29:31.630Z,680
2017-07-04T03:30:25.611Z,660
2017-07-04T03:31:25.668Z,620
2017-07-04T03:32:20.697Z,672
2017-07-04T03:33:15.727Z,752
2017-07-04T03:34:17.280Z,780
2017-07-04T03:35:18.279Z,800
2017-07-04T03:36:17.776Z,756
2017-07-04T03:37:12.915Z,688
2017-07-04T03:38:12.947Z,608
2017-07-04T03:39:12.978Z,560
2017-07-04T03:40:13.532Z,628
2017-07-04T03:41:07.038Z,780
2017-07-04T03:42:07.019Z,900
2017-07-04T03:43:02.150Z,960
2017-07-04T03:43:57.070Z,1032
2017-07-04T03:44:51.104Z,1156
2017-07-04T03:45:51.319Z,1292
2017-07-04T03:46:46.116Z,1408
2017-07-04T03:47:41.276Z,1480
2017-07-04T03:48:41.340Z,1480
2017-07-04T03:49:36.487Z,1376
2017-07-04T03:50:31.418Z,1108
2017-07-04T03:51:25.441Z,912
2017-07-04T03:52:26.558Z,832
2017-07-04T03:53:20.521Z,808
2017-07-04T03:54:08.641Z,852
2017-07-04T03:54:56.606Z,884
2017-07-04T03:55:50.744Z,880
2017-07-04T03:56:44.672Z,788
2017-07-04T03:57:32.669Z,812
2017-07-04T03:58:21.842Z,968
2017-07-04T03:59:10.877Z,1036
2017-07-04T03:59:59.913Z,968
2017-07-04T04:00:55.126Z,820
2017-07-04T04:01:48.841Z,796
2017-07-04T04:02:38.054Z,844
2017-07-04T04:03:32.001Z,912
2017-07-04T04:04:31.998Z,940
2017-07-04T04:05:26.259Z,1260
2017-07-04T04:06:32.164Z,1916
2017-07-04T04:07:21.178Z,2424
2017-07-04T04:08:09.233Z,2920
2017-07-04T04:09:04.291Z,3404
2017-07-04T04:10:05.422Z,3868
2017-07-04T04:11:06.373Z,4336
2017-07-04T04:12:00.436Z,4632
2017-07-04T04:13:00.424Z,4748
2017-07-04T04:13:55.398Z,4732
2017-07-04T04:14:50.578Z,4612
2017-07-04T04:15:44.490Z,4512
2017-07-04T04:16:44.708Z,4584
2017-07-04T04:17:39.593Z,4828
2017-07-04T04:18:34.703Z,5208
2017-07-04T04:19:34.796Z,5808
2017-07-04T04:20:29.762Z,6464
2017-07-04T04:21:24.771Z,6836
2017-07-04T04:22:19.146Z,7020
2017-07-04T04:23:19.887Z,7420
2017-07-04T04:24:15.045Z,7676
2017-07-04T04:25:15.327Z,7860
2017-07-04T04:26:15.581Z,7848
2017-07-04T04:27:14.959Z,7404
2017-07-04T04:28:15.128Z,7108
2017-07-04T04:29:09.168Z,7268
2017-07-04T04:30:09.149Z,8012
2017-07-04T04:31:04.245Z,8560
2017-07-04T04:31:59.219Z,8600
2017-07-04T04:32:53.239Z,8652
2017-07-04T04:33:53.318Z,8736
2017-07-04T04:34:48.336Z,8708
2017-07-04T04:35:43.285Z,8424
2017-07-04T04:36:43.516Z,8596
2017-07-04T04:37:38.517Z,9128
2017-07-04T04:38:32.498Z,9756
2017-07-04T04:39:32.622Z,10260
2017-07-04T04:40:26.569Z,10888
2017-07-04T04:41:20.641Z,11508
2017-07-04T04:42:20.723Z,11600
2017-07-04T04:43:14.746Z,10948
2017-07-04T04:44:08.735Z,10304
2017-07-04T04:44:57.806Z,9896
2017-07-04T04:45:51.753Z,9748
2017-07-04T04:46:46.085Z,9348
2017-07-04T04:47:45.950Z,9020
2017-07-04T04:48:40.909Z,9160
2017-07-04T04:49:41.064Z,9232
2017-07-04T04:50:35.048Z,9576
2017-07-04T04:51:29.085Z,10124
2017-07-04T04:52:29.131Z,10820
2017-07-04T04:53:29.245Z,11264
2017-07-04T04:54:17.188Z,11252
2017-07-04T04:55:11.178Z,10964
2017-07-04T04:56:06.603Z,11208
2017-07-04T04:57:01.305Z,11140
2017-07-04T04:57:55.334Z,10880
2017-07-04T04:58:44.543Z,10188
2017-07-04T04:59:38.478Z,9236
2017-07-04T05:00:38.603Z,8408
2017-07-04T05:01:38.862Z,7736
2017-07-04T05:02:38.625Z,7072
2017-07-04T05:03:38.663Z,6036
2017-07-04T05:04:38.614Z,5240
2017-07-04T05:05:33.800Z,4720
2017-07-04T05:06:21.771Z,4464
2017-07-04T05:07:15.812Z,4400
2017-07-04T05:08:04.804Z,4384
2017-07-04T05:08:52.929Z,4364
2017-07-04T05:09:41.872Z,4464
2017-07-04T05:10:36.031Z,4360
2017-07-04T05:11:30.050Z,4164
2017-07-04T05:12:24.240Z,4000
2017-07-04T05:13:18.400Z,4116
2017-07-04T05:14:07.212Z,4364
2017-07-04T05:15:01.119Z,4544
2017-07-04T05:15:55.205Z,4744
2017-07-04T05:16:50.308Z,5232
2017-07-04T05:17:44.227Z,5820
2017-07-04T05:18:39.361Z,6444
2017-07-04T05:19:33.462Z,6984
2017-07-04T05:20:22.407Z,7576
2017-07-04T05:21:22.507Z,8504
2017-07-04T05:22:16.549Z,9332
2017-07-04T05:23:11.714Z,9736
2017-07-04T05:23:59.671Z,9832
2017-07-04T05:24:53.802Z,9948
2017-07-04T05:25:53.792Z,10096
2017-07-04T05:26:48.756Z,10032
2017-07-04T05:27:43.784Z,9996
2017-07-04T05:28:38.231Z,9844
2017-07-04T05:29:38.866Z,9692
2017-07-04T05:30:27.952Z,9628
2017-07-04T05:31:17.079Z,9712
2017-07-04T05:32:12.092Z,9952
2017-07-04T05:33:01.049Z,10104
2017-07-04T05:33:55.205Z,10064
2017-07-04T05:34:55.153Z,9764
2017-07-04T05:35:50.234Z,9476
2017-07-04T05:36:45.191Z,9284
2017-07-04T05:37:45.238Z,9316
2017-07-04T05:38:40.361Z,9496
2017-07-04T05:39:35.370Z,9860
2017-07-04T05:40:23.999Z,10348
2017-07-04T05:41:18.386Z,10812
2017-07-04T05:42:13.010Z,11220
2017-07-04T05:43:07.543Z,11524
2017-07-04T05:44:02.698Z,11516
2017-07-04T05:45:02.647Z,11524
2017-07-04T05:45:50.600Z,11728
2017-07-04T05:46:44.683Z,11916
2017-07-04T05:47:39.793Z,11952
2017-07-04T05:48:33.858Z,12212
2017-07-04T05:49:27.845Z,12640
2017-07-04T05:50:21.950Z,12896
2017-07-04T05:51:16.936Z,13024
2017-07-04T05:52:16.977Z,13352
2017-07-04T05:53:18.017Z,13708
2017-07-04T05:54:18.038Z,13584
2017-07-04T05:55:13.312Z,13260
2017-07-04T05:56:07.067Z,12968
2017-07-04T05:57:02.156Z,12748
2017-07-04T05:57:51.209Z,12548
2017-07-04T05:58:46.209Z,12108
2017-07-04T05:59:40.339Z,11336
2017-07-04T06:00:28.417Z,10796
2017-07-04T06:01:16.965Z,10568
2017-07-04T06:02:16.436Z,10044
2017-07-04T06:03:11.449Z,9796
2017-07-04T06:04:00.561Z,10112
2017-07-04T06:04:55.686Z,10256
2017-07-04T06:05:55.637Z,9904
2017-07-04T06:06:50.656Z,9656
2017-07-04T06:07:44.739Z,9968
2017-07-04T06:08:39.695Z,10388
2017-07-04T06:09:34.912Z,10368
2017-07-04T06:10:24.539Z,10460
2017-07-04T06:11:17.971Z,11016
2017-07-04T06:12:12.948Z,11976
2017-07-04T06:13:13.112Z,12620
2017-07-04T06:14:07.998Z,11988
2017-07-04T06:15:03.146Z,10512
2017-07-04T06:15:52.080Z,9440
2017-07-04T06:16:46.181Z,9144
2017-07-04T06:17:40.273Z,9824
2017-07-04T06:18:29.336Z,10840
2017-07-04T06:19:23.369Z,11464
2017-07-04T06:20:17.925Z,12124
2017-07-04T06:21:12.371Z,12928
2017-07-04T06:22:07.423Z,13744
2017-07-04T06:22:56.479Z,13720
2017-07-04T06:23:45.608Z,12964
2017-07-04T06:24:45.557Z,12848
2017-07-04T06:25:33.651Z,13456
2017-07-04T06:26:27.612Z,13684
2017-07-04T06:27:22.820Z,13408
2017-07-04T06:28:12.078Z,13240
2017-07-04T06:29:05.831Z,13428
2017-07-04T06:30:06.785Z,12964
2017-07-04T06:31:00.855Z,12648
2017-07-04T06:31:54.958Z,12816
2017-07-04T06:32:55.031Z,13164
2017-07-04T06:33:49.069Z,13808
2017-07-04T06:34:44.079Z,14440
2017-07-04T06:35:45.061Z,14668
2017-07-04T06:36:39.224Z,13400
2017-07-04T06:37:27.218Z,11824
2017-07-04T06:38:21.318Z,10724
2017-07-04T06:39:15.294Z,10308
2017-07-04T06:40:15.969Z,9968
2017-07-04T06:41:09.402Z,10416
2017-07-04T06:42:09.387Z,11184
2017-07-04T06:42:58.392Z,11200
2017-07-04T06:43:47.481Z,10740
2017-07-04T06:44:48.524Z,9676
2017-07-04T06:45:48.609Z,8788
2017-07-04T06:46:43.586Z,8960
2017-07-04T06:47:37.660Z,9656
2017-07-04T06:48:32.808Z,9740
2017-07-04T06:49:20.855Z,9188
2017-07-04T06:50:15.520Z,8148
2017-07-04T06:51:03.777Z,7672
2017-07-04T06:51:58.882Z,8188
2017-07-04T06:52:52.958Z,8916
2017-07-04T06:53:46.965Z,9240
2017-07-04T06:54:35.969Z,9280
2017-07-04T06:55:36.248Z,9716
2017-07-04T06:56:36.121Z,10240
2017-07-04T06:57:25.200Z,10364
2017-07-04T06:58:14.277Z,10096
2017-07-04T06:59:02.290Z,9364
2017-07-04T06:59:57.327Z,8580
2017-07-04T07:00:52.418Z,8880
2017-07-04T07:01:41.401Z,10256
2017-07-04T07:02:36.519Z,12836
2017-07-04T07:03:30.501Z,15144
2017-07-04T07:04:25.591Z,17760
2017-07-04T07:05:26.984Z,21248
2017-07-04T07:06:21.545Z,22688
2017-07-04T07:07:15.533Z,23840
2017-07-04T07:08:15.711Z,23552
2017-07-04T07:09:15.735Z,19968
2017-07-04T07:10:10.029Z,17984
2017-07-04T07:11:03.778Z,18336
2017-07-04T07:11:57.888Z,19488
2017-07-04T07:12:58.824Z,21216
2017-07-04T07:13:52.963Z,21440
2017-07-04T07:14:46.969Z,21952
2017-07-04T07:15:41.058Z,23680
2017-07-04T07:16:29.075Z,24448
2017-07-04T07:17:23.259Z,24896
2017-07-04T07:18:12.569Z,26208
2017-07-04T07:19:01.214Z,28032
2017-07-04T07:19:55.176Z,30048
2017-07-04T07:20:50.257Z,28352
2017-07-04T07:21:44.398Z,24960
2017-07-04T07:22:39.478Z,22176
2017-07-04T07:23:39.450Z,19744
2017-07-04T07:24:34.517Z,17472
2017-07-04T07:25:28.898Z,14712
2017-07-04T07:26:23.599Z,12784
2017-07-04T07:27:17.618Z,11804
2017-07-04T07:28:11.779Z,12632
2017-07-04T07:29:06.790Z,13852
2017-07-04T07:29:54.843Z,14520
2017-07-04T07:30:42.859Z,14812
2017-07-04T07:31:30.808Z,15660
2017-07-04T07:32:24.963Z,18336
2017-07-04T07:33:14.264Z,20640
2017-07-04T07:34:07.973Z,21344
2017-07-04T07:34:56.142Z,20800
2017-07-04T07:35:56.064Z,22080
2017-07-04T07:36:51.222Z,25376
2017-07-04T07:37:45.210Z,24992
2017-07-04T07:38:34.411Z,23424
2017-07-04T07:39:27.338Z,22016
2017-07-04T07:40:15.396Z,20864
2017-07-04T07:41:10.419Z,19872
2017-07-04T07:41:59.473Z,18400
2017-07-04T07:42:59.680Z,17408
2017-07-04T07:44:00.575Z,17600
2017-07-04T07:45:00.537Z,17376
2017-07-04T07:45:54.619Z,16640
2017-07-04T07:46:49.625Z,14348
2017-07-04T07:47:43.811Z,13724
2017-07-04T07:48:32.768Z,13784
2017-07-04T07:49:21.801Z,14864
2017-07-04T07:50:15.957Z,17632
2017-07-04T07:51:09.897Z,19776
2017-07-04T07:52:04.989Z,19904
2017-07-04T07:53:05.039Z,19136
2017-07-04T07:54:00.150Z,20032
2017-07-04T07:55:00.180Z,22976
2017-07-04T07:56:00.118Z,25728
2017-07-04T07:56:55.201Z,26656
2017-07-04T07:57:49.188Z,25440
2017-07-04T07:58:44.768Z,23104
2017-07-04T07:59:44.354Z,21440
2017-07-04T08:00:39.324Z,21216
2017-07-04T08:01:33.509Z,21568
2017-07-04T08:02:27.447Z,22240
2017-07-04T08:03:15.455Z,23328
2017-07-04T08:04:15.569Z,23776
2017-07-04T08:05:10.606Z,22816
2017-07-04T08:05:59.645Z,23264
2017-07-04T08:06:48.723Z,26208
2017-07-04T08:07:43.732Z,29792
2017-07-04T08:08:32.734Z,32352
2017-07-04T08:09:20.858Z,32192
2017-07-04T08:10:14.899Z,30272
2017-07-04T08:11:15.160Z,29280
2017-07-04T08:12:08.953Z,30880
2017-07-04T08:13:03.087Z,36192
2017-07-04T08:14:03.068Z,39232
2017-07-04T08:14:58.119Z,37536
2017-07-04T08:15:58.177Z,39840
2017-07-04T08:16:53.206Z,40480
2017-07-04T08:17:48.180Z,32192
2017-07-04T08:18:42.354Z,28672
2017-07-04T08:19:36.384Z,29152
2017-07-04T08:20:36.471Z,27552
2017-07-04T08:21:25.463Z,26624
2017-07-04T08:22:19.485Z,28576
2017-07-04T08:23:13.946Z,30016
2017-07-04T08:24:08.627Z,28160
2017-07-04T08:24:56.838Z,25280
2017-07-04T08:25:44.738Z,25088
2017-07-04T08:26:39.782Z,26400
2017-07-04T08:27:34.874Z,25120
2017-07-04T08:28:29.098Z,21984
2017-07-04T08:29:17.920Z,19488
2017-07-04T08:30:12.925Z,17440
2017-07-04T08:31:12.966Z,17376
2017-07-04T08:32:02.066Z,18048
2017-07-04T08:32:56.200Z,18848
2017-07-04T08:33:56.210Z,19584
2017-07-04T08:34:50.189Z,19904
2017-07-04T08:35:44.260Z,20704
2017-07-04T08:36:38.297Z,23424
2017-07-04T08:37:33.263Z,30144
2017-07-04T08:38:28.464Z,45984
2017-07-04T08:39:28.414Z,91296
2017-07-04T08:40:16.533Z,42720
2017-07-04T08:41:05.489Z,38208
2017-07-04T08:42:05.675Z,39136
2017-07-04T08:42:59.684Z,28000
2017-07-04T08:44:01.631Z,28608
2017-07-04T08:44:48.812Z,31232
2017-07-04T08:45:37.867Z,34752
2017-07-04T08:46:32.812Z,32672
2017-07-04T08:47:27.806Z,34368
2017-07-04T08:48:29.072Z,47168
2017-07-04T08:49:18.288Z,50912
2017-07-04T08:50:18.307Z,45376
2017-07-04T08:51:18.065Z,37120
2017-07-04T08:52:18.119Z,37344
2017-07-04T08:53:12.151Z,38816
2017-07-04T08:54:01.338Z,39808
2017-07-04T08:55:01.326Z,53920
2017-07-04T08:55:55.719Z,38624
2017-07-04T08:56:56.348Z,45888
2017-07-04T08:57:51.617Z,31392
2017-07-04T08:58:45.651Z,63776
2017-07-04T08:59:40.666Z,75232
2017-07-04T09:00:35.765Z,35040
2017-07-04T09:01:29.691Z,44480
2017-07-04T09:02:29.707Z,74432
2017-07-04T09:03:23.779Z,92544
2017-07-04T09:04:12.745Z,61440
2017-07-04T09:05:08.002Z,45952
2017-07-04T09:06:08.436Z,39456
2017-07-04T09:07:02.923Z,37120
2017-07-04T09:07:51.975Z,38912
2017-07-04T09:08:47.090Z,35744
2017-07-04T09:09:41.181Z,36864
2017-07-04T09:10:30.469Z,44832
2017-07-04T09:11:19.205Z,62624
2017-07-04T09:12:08.703Z,60256
2017-07-04T09:13:02.282Z,108672
2017-07-04T09:13:56.802Z,49664
2017-07-04T09:14:44.787Z,46880
2017-07-04T09:15:38.605Z,45472
2017-07-04T09:16:32.872Z,81088
2017-07-04T09:17:32.902Z,46272
2017-07-04T09:18:28.145Z,46528
2017-07-04T09:19:16.745Z,44160
2017-07-04T09:20:12.039Z,43040
2017-07-04T09:21:01.017Z,44032
2017-07-04T09:21:55.986Z,44992
2017-07-04T09:22:45.302Z,47072
2017-07-04T09:23:33.939Z,52960
2017-07-04T09:24:28.236Z,58080
2017-07-04T09:25:23.758Z,93728
2017-07-04T09:26:17.238Z,53568
2017-07-04T09:27:11.637Z,92672
2017-07-04T09:28:00.283Z,90176
2017-07-04T09:28:54.521Z,50752
2017-07-04T09:29:43.466Z,54016
2017-07-04T09:30:31.527Z,41824
2017-07-04T09:31:26.665Z,62080
2017-07-04T09:32:27.053Z,50656
2017-07-04T09:33:26.778Z,102752
2017-07-04T09:34:26.883Z,98432
2017-07-04T09:35:21.493Z,52736
2017-07-04T09:36:20.901Z,104000
2017-07-04T09:37:15.966Z,67552
2017-07-04T09:38:10.229Z,60000
2017-07-04T09:39:10.091Z,108256
2017-07-04T09:40:05.178Z,103264
2017-07-04T09:40:59.743Z,45504
2017-07-04T09:41:53.424Z,45632
2017-07-04T09:42:48.402Z,47008
2017-07-04T09:43:42.452Z,46784
2017-07-04T09:44:36.495Z,50528
2017-07-04T09:45:26.339Z,52032
2017-07-04T09:46:14.671Z,59808
2017-07-04T09:47:04.279Z,56352
2017-07-04T09:47:57.722Z,58528
2017-07-04T09:48:52.152Z,76640
2017-07-04T09:49:45.874Z,56160
2017-07-04T09:50:34.277Z,52640
2017-07-04T09:51:22.155Z,49280
2017-07-04T09:52:16.238Z,51584
2017-07-04T09:53:10.158Z,73152
2017-07-04T09:54:10.319Z,43584
2017-07-04T09:55:05.371Z,38240
2017-07-04T09:55:59.344Z,38912
2017-07-04T09:56:54.467Z,41536
2017-07-04T09:57:48.609Z,43168
2017-07-04T09:58:37.673Z,44384
2017-07-04T09:59:26.744Z,42848
2017-07-04T10:00:27.334Z,43232
2017-07-04T10:01:22.118Z,42048
2017-07-04T10:02:16.221Z,38880
2017-07-04T10:03:10.171Z,38016
2017-07-04T10:03:58.885Z,39616
2017-07-04T10:04:49.007Z,43520
2017-07-04T10:05:43.092Z,45600
2017-07-04T10:06:37.347Z,50304
2017-07-04T10:07:32.023Z,52672
2017-07-04T10:08:26.161Z,73632
2017-07-04T10:09:20.813Z,61824
2017-07-04T10:10:14.809Z,87136
2017-07-04T10:11:02.527Z,45920
2017-07-04T10:11:56.520Z,36640
2017-07-04T10:12:50.714Z,32960
2017-07-04T10:13:44.431Z,33056
2017-07-04T10:14:39.575Z,38272
2017-07-04T10:15:33.572Z,43808
2017-07-04T10:16:28.555Z,46304
2017-07-04T10:17:22.878Z,47488
2017-07-04T10:18:17.744Z,68544
2017-07-04T10:19:06.123Z,43264
2017-07-04T10:19:54.987Z,38176
2017-07-04T10:20:50.217Z,99168
2017-07-04T10:21:39.518Z,99968
2017-07-04T10:22:32.977Z,96064
2017-07-04T10:23:21.136Z,91520
2017-07-04T10:24:09.242Z,95264
2017-07-04T10:25:03.642Z,38848
2017-07-04T10:25:52.737Z,42592
2017-07-04T10:26:46.321Z,35200
2017-07-04T10:27:41.637Z,57888
2017-07-04T10:28:30.565Z,84736
2017-07-04T10:29:30.878Z,84928
2017-07-04T10:30:25.098Z,84832
2017-07-04T10:31:13.664Z,87488
2017-07-04T10:32:03.419Z,88160
2017-07-04T10:32:52.211Z,92928
2017-07-04T10:33:47.283Z,91712
2017-07-04T10:34:41.195Z,92384
2017-07-04T10:35:36.021Z,99552
2017-07-04T10:36:30.358Z,34624
2017-07-04T10:37:19.663Z,26208
2017-07-04T10:38:14.400Z,24064
2017-07-04T10:39:08.844Z,94176
2017-07-04T10:40:03.786Z,91584
2017-07-04T10:40:52.209Z,87232
2017-07-04T10:41:40.919Z,37056
2017-07-04T10:42:29.473Z,33952
2017-07-04T10:43:24.554Z,28416
2017-07-04T10:44:18.551Z,28768
2017-07-04T10:45:13.922Z,100960
2017-07-04T10:46:08.682Z,106368
2017-07-04T10:47:02.996Z,48000
2017-07-04T10:47:51.853Z,30432
2017-07-04T10:48:51.745Z,32608
2017-07-04T10:49:46.898Z,40512
2017-07-04T10:50:35.968Z,39136
2017-07-04T10:51:24.163Z,36800
2017-07-04T10:52:19.245Z,37280
2017-07-04T10:53:13.310Z,37760
2017-07-04T10:54:02.235Z,40192
2017-07-04T10:54:56.430Z,41088
2017-07-04T10:55:51.360Z,41728
2017-07-04T10:56:51.720Z,42400
2017-07-04T10:57:39.449Z,42432
2017-07-04T10:58:33.499Z,43136
2017-07-04T10:59:28.013Z,31488
2017-07-04T11:00:28.144Z,40576
2017-07-04T11:01:17.210Z,38784
2017-07-04T11:02:12.064Z,37248
2017-07-04T11:03:01.179Z,36608
2017-07-04T11:03:56.124Z,37600
2017-07-04T11:04:51.139Z,41376
2017-07-04T11:05:45.244Z,78400
2017-07-04T11:06:39.342Z,50560
2017-07-04T11:07:39.020Z,57600
2017-07-04T11:08:34.220Z,54464
2017-07-04T11:09:28.542Z,112768
2017-07-04T11:10:22.909Z,109696
2017-07-04T11:11:16.258Z,113952
2017-07-04T11:12:16.424Z,121504
2017-07-04T11:13:05.565Z,73632
2017-07-04T11:14:00.485Z,121408
2017-07-04T11:14:54.711Z,112416
2017-07-04T11:15:54.712Z,112288
2017-07-04T11:16:43.872Z,100736
2017-07-04T11:17:38.882Z,87392
2017-07-04T11:18:28.027Z,64448
2017-07-04T11:19:22.089Z,56256
2017-07-04T11:20:16.098Z,52800
2017-07-04T11:21:16.735Z,51552
2017-07-04T11:22:10.309Z,52288
2017-07-04T11:22:59.385Z,50560
2017-07-04T11:23:53.462Z,49280
2017-07-04T11:24:47.607Z,46752
2017-07-04T11:25:43.055Z,45472
2017-07-04T11:26:37.866Z,46464
2017-07-04T11:27:32.848Z,44608
2017-07-04T11:28:26.813Z,44800
2017-07-04T11:29:21.739Z,45792
2017-07-04T11:30:16.013Z,45312
2017-07-04T11:31:05.352Z,43488
2017-07-04T11:31:54.069Z,41920
2017-07-04T11:32:43.151Z,48416
2017-07-04T11:33:44.403Z,127744
2017-07-04T11:34:33.231Z,54048
2017-07-04T11:35:27.804Z,68256
2017-07-04T11:36:15.958Z,46336
2017-07-04T11:37:10.541Z,41280
2017-07-04T11:37:59.607Z,44800
2017-07-04T11:38:55.001Z,91136
2017-07-04T11:39:49.277Z,50528
2017-07-04T11:40:43.152Z,96704
2017-07-04T11:41:36.872Z,98560
2017-07-04T11:42:30.890Z,76512
2017-07-04T11:43:30.912Z,67232
2017-07-04T11:44:26.216Z,66560
2017-07-04T11:45:20.015Z,66368
2017-07-04T11:46:14.082Z,79072
2017-07-04T11:47:08.140Z,85024
2017-07-04T11:47:57.387Z,81952
2017-07-04T11:48:51.567Z,88416
2017-07-04T11:49:40.134Z,90752
2017-07-04T11:50:29.036Z,85184
2017-07-04T11:51:22.924Z,87680
2017-07-04T11:52:17.059Z,90784
2017-07-04T11:53:05.286Z,97920
2017-07-04T11:53:59.142Z,29312
2017-07-04T11:54:53.396Z,32096
2017-07-04T11:55:53.280Z,31296
2017-07-04T11:56:53.325Z,57984
2017-07-04T11:57:48.078Z,90432
2017-07-04T11:58:37.514Z,34048
2017-07-04T11:59:32.529Z,37024
2017-07-04T12:00:32.846Z,33216
2017-07-04T12:01:27.636Z,32896
2017-07-04T12:02:16.480Z,34208
2017-07-04T12:03:10.995Z,48768
2017-07-04T12:04:05.081Z,26496
2017-07-04T12:04:54.266Z,26432
2017-07-04T12:05:47.789Z,26176
2017-07-04T12:06:41.802Z,40544
2017-07-04T12:07:30.961Z,41312
2017-07-04T12:08:19.898Z,68672
2017-07-04T12:09:15.132Z,77504
2017-07-04T12:10:04.467Z,102400
2017-07-04T12:11:05.555Z,107072
2017-07-04T12:12:05.988Z,106976
2017-07-04T12:13:00.989Z,105440
2017-07-04T12:13:49.656Z,107200
2017-07-04T12:14:38.552Z,106688